EDDE/ERF METAR and TAF weather

Enter ICAO airport designator
Station Type Date Time Source
EDDE METAR 2024/04/15 09:20 UTC NOAA

EDDE 150920Z AUTO 21008KT 170V260 9999 FEW015 BKN036 BKN044 12/08 Q1009 NOSIG


Station Type Date Time Source
EDDE Decoded METAR 2024/04/15 09:20 UTC NOAA

Erfurt-Bindersleben, Germany (EDDE) 50-59N 010-58E 322M
Apr 15, 2024 - 05:20 AM EDT / 2024.04.15 0920 UTC
Wind: from the SSW (210 degrees) at 9 MPH (8 KT) (direction variable):0
Visibility: greater than 7 mile(s):0
Sky conditions: mostly cloudy
Temperature: 53 F (12 C)
Dew Point: 46 F (8 C)
Relative Humidity: 76%
Pressure (altimeter): 29.80 in. Hg (1009 hPa)
ob: EDDE 150920Z AUTO 21008KT 170V260 9999 FEW015 BKN036 BKN044 12/08 Q1009 NOSIG
cycle: 9

Station Type Date Time Source
EDDE TAF 2024/04/15 08:26 UTC NOAA